Tiger — 9HA2271 — position and weather

sailwx.info

Track history (hours):
 
Tides and Currents Weather Stations Pressure Air Temp Water Temp Dewpoint Dewpoint Depression Visibility Wind Speed Wind Dir Waves Ship Positions

Tiger

Last reported at 2017-Nov-08 04:32 UTC. Time now 2017-Nov-20 17:24 UTC.
Position S 27°50' E 154°05'.
Warning: this ship's position is 12 days out of date.

Length 231 m; draft 8 m.

Type: Cargo ship. MMSI: 248223000.

Date/timePositionNaut miles runAvg speedWind from/ knotsBaromVisibWave heightAir tempDewpointWater temp
2017-Nov-08 04:32S 27°50' E 154°05'419.3
2017-Nov-08 04:18S 27°54' E 154°04'619.1
2017-Nov-08 04:01S 27°59' E 154°03'918.8
2017-Nov-08 03:30S 28°09' E 154°00'918.5
2017-Nov-08 03:00S 28°18' E 153°58'918.4
2017-Nov-08 02:30S 28°27' E 153°56'918.1
2017-Nov-08 02:00S 28°36' E 153°53'23618.8
2017-Nov-07 13:27S 32°24' E 152°46'818.9
2017-Nov-07 13:00S 32°32' E 152°43'918.4
2017-Nov-07 12:30S 32°40' E 152°38'917.8
2017-Nov-07 12:00S 32°47' E 152°31'917.9
2017-Nov-07 11:30S 32°54' E 152°26'918.0
2017-Nov-07 11:00S 33°02' E 152°20'918.2
2017-Nov-07 10:30S 33°09' E 152°13'5217.5
2017-Nov-07 07:31S 33°54' E 151°40'018.0
2017-Nov-07 07:30S 33°54' E 151°40'  
2017-Nov-04 05:22S 38°06' E 144°55'  
Track history (hours):
 
Tides and Currents Weather Stations Pressure Air Temp Water Temp Dewpoint Dewpoint Depression Visibility Wind Speed Wind Dir Waves Ship Positions

Tiger

Last reported at 2017-Nov-08 04:32 UTC. Time now 2017-Nov-20 17:24 UTC.
Position S 27°50' E 154°05'.
Warning: this ship's position is 12 days out of date.

Length 231 m; draft 8 m.

Type: Cargo ship. MMSI: 248223000.

Date/timePositionNaut miles runAvg speedWind from/ knotsBaromVisibWave heightAir tempDewpointWater temp
2017-Nov-08 04:32S 27°50' E 154°05'419.3
2017-Nov-08 04:18S 27°54' E 154°04'619.1
2017-Nov-08 04:01S 27°59' E 154°03'918.8
2017-Nov-08 03:30S 28°09' E 154°00'918.5
2017-Nov-08 03:00S 28°18' E 153°58'918.4
2017-Nov-08 02:30S 28°27' E 153°56'918.1
2017-Nov-08 02:00S 28°36' E 153°53'23618.8
2017-Nov-07 13:27S 32°24' E 152°46'818.9
2017-Nov-07 13:00S 32°32' E 152°43'918.4
2017-Nov-07 12:30S 32°40' E 152°38'917.8
2017-Nov-07 12:00S 32°47' E 152°31'917.9
2017-Nov-07 11:30S 32°54' E 152°26'918.0
2017-Nov-07 11:00S 33°02' E 152°20'918.2
2017-Nov-07 10:30S 33°09' E 152°13'5217.5
2017-Nov-07 07:31S 33°54' E 151°40'018.0
2017-Nov-07 07:30S 33°54' E 151°40'  
2017-Nov-04 05:22S 38°06' E 144°55'  

Dump ship's entire track history